createdAt,value
2023-04-10T00:00:10.929Z,6.20
2023-04-10T00:05:12.408Z,7.07
2023-04-10T00:10:13.921Z,7.45
2023-04-10T00:15:15.361Z,6.93
2023-04-10T00:20:16.736Z,5.90
2023-04-10T00:25:18.218Z,5.82
2023-04-10T00:30:19.894Z,5.73
2023-04-10T00:35:21.297Z,5.32
2023-04-10T00:40:22.711Z,4.97
2023-04-10T00:45:24.252Z,5.65
2023-04-10T00:50:25.549Z,5.63
2023-04-10T00:55:26.930Z,5.83
2023-04-10T01:00:28.230Z,5.80
2023-04-10T01:05:35.219Z,6.00
2023-04-10T01:10:47.852Z,6.05
2023-04-10T01:15:52.377Z,6.30
2023-04-10T01:20:53.817Z,5.97
2023-04-10T01:26:01.380Z,6.20
2023-04-10T01:31:03.255Z,6.60
2023-04-10T01:36:06.077Z,5.82
2023-04-10T01:41:08.217Z,6.55
2023-04-10T01:46:10.064Z,5.80
2023-04-10T01:51:11.662Z,6.63
2023-04-10T01:56:13.343Z,5.93
2023-04-10T02:01:28.893Z,6.40
2023-04-10T02:06:34.059Z,5.80
2023-04-10T02:11:41.891Z,6.10
2023-04-10T02:16:43.381Z,6.20
2023-04-10T02:21:44.859Z,6.20
2023-04-10T02:26:51.058Z,6.65
2023-04-10T02:31:52.385Z,6.57
2023-04-10T02:36:54.495Z,6.43
2023-04-10T02:41:56.549Z,6.30
2023-04-10T02:46:57.880Z,6.27
2023-04-10T02:51:59.196Z,6.20
2023-04-10T02:57:01.365Z,5.60
2023-04-10T03:02:02.743Z,5.67
2023-04-10T03:07:04.060Z,5.85
2023-04-10T03:12:05.398Z,6.17
2023-04-10T03:17:07.380Z,5.97
2023-04-10T03:22:09.985Z,5.30
2023-04-10T03:27:11.282Z,5.97
2023-04-10T03:32:12.606Z,6.50
2023-04-10T03:37:13.923Z,5.63
2023-04-10T03:42:15.308Z,6.30
2023-04-10T03:47:16.835Z,6.53
2023-04-10T03:52:18.150Z,6.30
2023-04-10T03:57:21.078Z,5.90
2023-04-10T04:02:22.592Z,6.77
2023-04-10T04:07:24.010Z,5.45
2023-04-10T04:12:25.354Z,7.05
2023-04-10T04:17:26.792Z,6.53
2023-04-10T04:22:28.106Z,6.50
2023-04-10T04:27:29.425Z,6.47
2023-04-10T04:32:30.900Z,5.90
2023-04-10T04:37:32.164Z,6.10
2023-04-10T04:42:33.462Z,6.20
2023-04-10T04:47:34.840Z,6.38
2023-04-10T04:52:36.305Z,6.00
2023-04-10T04:57:37.626Z,6.35
2023-04-10T05:02:39.127Z,5.63
2023-04-10T05:07:40.635Z,6.20
2023-04-10T05:12:43.099Z,6.55
2023-04-10T05:17:44.492Z,6.30
2023-04-10T05:22:46.146Z,6.20
2023-04-10T05:27:47.400Z,6.28
2023-04-10T05:32:48.717Z,5.90
2023-04-10T05:37:50.275Z,5.63
2023-04-10T05:42:52.078Z,6.70
2023-04-10T05:47:53.424Z,6.75
2023-04-10T05:52:54.880Z,5.80
2023-04-10T05:57:56.173Z,11.43
2023-04-10T06:02:57.598Z,17.50
2023-04-10T06:07:58.967Z,14.40
2023-04-10T06:13:00.661Z,10.00
2023-04-10T06:18:02.178Z,8.68
2023-04-10T06:23:03.528Z,7.87
2023-04-10T06:28:04.908Z,8.35
2023-04-10T06:33:06.268Z,7.47
2023-04-10T06:38:07.624Z,6.07
2023-04-10T06:43:09.432Z,8.88
2023-04-10T06:48:10.753Z,6.97
2023-04-10T06:53:11.994Z,5.28
2023-04-10T06:58:13.352Z,4.47
2023-04-10T07:03:14.789Z,4.10
2023-04-10T07:08:16.209Z,3.90
2023-04-10T07:13:17.519Z,3.73
2023-04-10T07:18:18.795Z,3.72
2023-04-10T07:23:20.472Z,4.07
2023-04-10T07:28:21.765Z,3.70
2023-04-10T07:33:23.035Z,4.05
2023-04-10T07:38:24.619Z,4.18
2023-04-10T07:43:26.076Z,3.83
2023-04-10T07:48:27.376Z,4.18
2023-04-10T07:53:28.712Z,4.22
2023-04-10T07:58:30.053Z,3.80
2023-04-10T08:03:37.394Z,3.97
2023-04-10T08:08:39.680Z,3.50
2023-04-10T08:13:41.160Z,3.53
2023-04-10T08:18:42.462Z,3.10
2023-04-10T08:23:43.758Z,3.03
2023-04-10T08:28:47.204Z,2.78
2023-04-10T08:33:48.927Z,2.57
2023-04-10T08:38:50.266Z,2.80
2023-04-10T08:43:51.613Z,2.58
2023-04-10T08:49:01.912Z,2.70
2023-04-10T08:54:06.979Z,2.60
2023-04-10T08:59:08.401Z,2.70
2023-04-10T09:04:11.718Z,2.60
2023-04-10T09:09:13.090Z,2.60
2023-04-10T09:14:20.810Z,2.40
2023-04-10T09:19:32.066Z,2.13
2023-04-10T09:24:42.409Z,2.20
2023-04-10T09:29:45.020Z,2.40
2023-04-10T09:34:53.958Z,2.40
2023-04-10T09:39:55.567Z,2.40
2023-04-10T09:44:56.975Z,2.50
2023-04-10T09:50:00.760Z,2.33
2023-04-10T09:55:06.623Z,2.47
2023-04-10T10:00:09.346Z,2.70
2023-04-10T10:05:11.216Z,1.90
2023-04-10T10:10:12.883Z,2.00
2023-04-10T10:15:29.873Z,2.00
2023-04-10T10:20:33.602Z,1.92
2023-04-10T10:25:37.019Z,2.60
2023-04-10T10:30:38.619Z,2.13
2023-04-10T10:35:40.622Z,1.90
2023-04-10T10:41:11.331Z,1.90
2023-04-10T10:46:14.701Z,1.95
2023-04-10T10:51:16.130Z,1.80
2023-04-10T10:56:20.638Z,2.00
2023-04-10T11:01:22.400Z,1.60
2023-04-10T11:06:43.579Z,1.40
2023-04-10T11:11:59.155Z,1.63
2023-04-10T11:17:00.676Z,1.70
2023-04-10T11:22:04.541Z,1.60
2023-04-10T11:27:06.932Z,2.33
2023-04-10T11:32:08.329Z,1.58
2023-04-10T11:37:09.737Z,1.43
2023-04-10T11:42:11.816Z,1.40
2023-04-10T11:47:14.274Z,1.50
2023-04-10T11:52:24.202Z,1.30
2023-04-10T11:57:34.133Z,1.10
2023-04-10T12:02:35.617Z,1.30
2023-04-10T12:07:37.032Z,1.10
2023-04-10T12:12:38.376Z,1.43
2023-04-10T12:17:39.909Z,1.30
2023-04-10T12:22:43.392Z,1.20
2023-04-10T12:27:48.300Z,1.10
2023-04-10T12:32:53.531Z,1.20
2023-04-10T12:37:55.269Z,1.20
2023-04-10T12:42:56.622Z,1.40
2023-04-10T12:47:57.949Z,1.30
2023-04-10T12:53:09.370Z,1.33
2023-04-10T12:58:17.993Z,1.30
2023-04-10T13:03:19.576Z,1.13
2023-04-10T13:08:22.075Z,1.40
2023-04-10T13:13:23.389Z,1.38
2023-04-10T13:18:24.888Z,1.97
2023-04-10T13:23:26.164Z,2.20
2023-04-10T13:28:27.501Z,1.90
2023-04-10T13:33:28.795Z,2.20
2023-04-10T13:38:30.242Z,2.77
2023-04-10T13:43:31.612Z,2.20
2023-04-10T13:48:40.086Z,2.00
2023-04-10T13:53:41.847Z,2.00
2023-04-10T13:58:45.366Z,1.63
2023-04-10T14:03:46.745Z,1.77
2023-04-10T14:08:48.123Z,2.17
2023-04-10T14:13:49.428Z,2.23
2023-04-10T14:18:50.764Z,1.90
2023-04-10T14:23:52.079Z,1.70
2023-04-10T14:28:53.605Z,2.10
2023-04-10T14:33:55.321Z,1.90
2023-04-10T14:38:56.785Z,2.03
2023-04-10T14:43:58.124Z,2.90
2023-04-10T14:48:59.454Z,1.70
2023-04-10T14:54:00.781Z,2.20
2023-04-10T14:59:02.086Z,2.33
2023-04-10T15:04:03.663Z,2.70
2023-04-10T15:09:05.232Z,2.50
2023-04-10T15:14:07.433Z,1.90
2023-04-10T15:19:08.776Z,2.00
2023-04-10T15:24:10.238Z,2.05
2023-04-10T15:29:14.715Z,2.10
2023-04-10T15:34:16.022Z,2.67
2023-04-10T15:39:17.369Z,1.92
2023-04-10T15:44:18.743Z,2.13
2023-04-10T15:49:29.831Z,2.00
2023-04-10T15:54:39.029Z,2.30
2023-04-10T15:59:40.416Z,2.00
2023-04-10T16:04:41.832Z,2.38
2023-04-10T16:09:43.260Z,2.30
2023-04-10T16:14:44.596Z,2.28
2023-04-10T16:19:45.946Z,2.50
2023-04-10T16:24:47.266Z,2.37
2023-04-10T16:29:48.537Z,2.20
2023-04-10T16:34:49.893Z,2.15
2023-04-10T16:39:51.873Z,2.67
2023-04-10T16:44:53.280Z,2.57
2023-04-10T16:49:54.524Z,2.58
2023-04-10T16:54:55.815Z,2.50
2023-04-10T16:59:58.205Z,2.90
2023-04-10T17:04:59.496Z,4.05
2023-04-10T17:10:00.827Z,5.97
2023-04-10T17:15:02.150Z,4.40
2023-04-10T17:20:03.658Z,3.58
2023-04-10T17:25:05.581Z,4.00
2023-04-10T17:30:10.510Z,4.30
2023-04-10T17:35:11.815Z,5.90
2023-04-10T17:40:13.250Z,5.00
2023-04-10T17:45:14.633Z,5.07
2023-04-10T17:50:16.050Z,3.40
2023-04-10T17:55:20.570Z,2.60
2023-04-10T18:00:22.873Z,3.15
2023-04-10T18:05:24.275Z,3.80
2023-04-10T18:10:25.737Z,3.38
2023-04-10T18:15:27.350Z,5.05
2023-04-10T18:20:28.677Z,5.77
2023-04-10T18:25:29.992Z,6.20
2023-04-10T18:30:34.005Z,4.40
2023-04-10T18:35:35.406Z,5.30
2023-04-10T18:40:39.459Z,6.40
2023-04-10T18:45:41.909Z,6.07
2023-04-10T18:50:43.300Z,3.40
2023-04-10T18:55:54.466Z,2.70
2023-04-10T19:00:55.762Z,2.67
2023-04-10T19:05:57.079Z,3.07
2023-04-10T19:10:58.469Z,4.20
2023-04-10T19:16:00.451Z,4.27
2023-04-10T19:21:02.642Z,4.03
2023-04-10T19:26:04.118Z,5.00
2023-04-10T19:31:05.701Z,4.00
2023-04-10T19:36:08.437Z,4.50
2023-04-10T19:41:14.128Z,3.90
2023-04-10T19:46:19.149Z,4.27
2023-04-10T19:51:21.098Z,2.65
2023-04-10T19:56:22.486Z,2.28
2023-04-10T20:01:24.107Z,2.20
2023-04-10T20:06:27.051Z,1.92
2023-04-10T20:11:30.590Z,2.05
2023-04-10T20:16:32.094Z,2.17
2023-04-10T20:21:33.692Z,2.15
2023-04-10T20:26:35.227Z,2.20
2023-04-10T20:31:36.597Z,2.30
2023-04-10T20:36:38.011Z,2.13
2023-04-10T20:41:39.328Z,2.13
2023-04-10T20:46:40.760Z,2.30
2023-04-10T20:51:42.420Z,1.70
2023-04-10T20:56:44.105Z,1.80
2023-04-10T21:01:45.783Z,2.00
2023-04-10T21:06:47.169Z,1.85
2023-04-10T21:11:48.481Z,1.60
2023-04-10T21:16:49.927Z,2.20
2023-04-10T21:21:51.319Z,1.83
2023-04-10T21:26:52.593Z,1.70
2023-04-10T21:31:53.950Z,1.97
2023-04-10T21:36:55.361Z,1.95
2023-04-10T21:41:56.896Z,1.90
2023-04-10T21:46:58.231Z,1.60
2023-04-10T21:51:59.610Z,1.90
2023-04-10T21:57:00.992Z,1.77
2023-04-10T22:02:02.313Z,1.83
2023-04-10T22:07:05.395Z,1.77
2023-04-10T22:12:07.007Z,1.60
2023-04-10T22:17:08.532Z,1.97
2023-04-10T22:22:10.035Z,1.77
2023-04-10T22:27:11.354Z,1.40
2023-04-10T22:32:12.693Z,1.50
2023-04-10T22:37:14.134Z,1.33
2023-04-10T22:42:15.806Z,1.40
2023-04-10T22:47:17.230Z,1.25
2023-04-10T22:52:18.587Z,1.27
2023-04-10T22:57:19.960Z,1.40
2023-04-10T23:02:21.276Z,1.98
2023-04-10T23:07:22.714Z,2.03
2023-04-10T23:12:24.065Z,1.40
2023-04-10T23:17:25.473Z,1.45
2023-04-10T23:22:28.100Z,1.90
2023-04-10T23:27:29.427Z,1.58
2023-04-10T23:32:30.788Z,2.03
2023-04-10T23:37:35.278Z,1.70
2023-04-10T23:42:36.654Z,1.38
2023-04-10T23:47:38.003Z,1.48
2023-04-10T23:52:39.306Z,1.53
2023-04-10T23:57:40.607Z,1.67
